sensor_id;sensor_type;location;lat;lon;timestamp;pressure;altitude;pressure_sealevel;temperature;humidity
5550;BME280;2798;42.716;23.256;2023-08-06T00:01:37;93595.59;;;25.36;66.48
5550;BME280;2798;42.716;23.256;2023-08-06T00:04:03;93546.63;;;25.11;65.75
5550;BME280;2798;42.716;23.256;2023-08-06T00:06:28;93614.47;;;25.45;65.44
5550;BME280;2798;42.716;23.256;2023-08-06T00:08:53;93642.06;;;25.42;65.73
5550;BME280;2798;42.716;23.256;2023-08-06T00:11:20;93645.03;;;25.46;65.52
5550;BME280;2798;42.716;23.256;2023-08-06T00:13:45;93637.03;;;25.40;66.09
5550;BME280;2798;42.716;23.256;2023-08-06T00:16:12;93647.34;;;25.42;65.96
5550;BME280;2798;42.716;23.256;2023-08-06T00:18:38;93639.91;;;25.39;66.51
5550;BME280;2798;42.716;23.256;2023-08-06T00:21:04;93626.38;;;25.35;66.90
5550;BME280;2798;42.716;23.256;2023-08-06T00:23:29;93613.88;;;25.42;64.69
5550;BME280;2798;42.716;23.256;2023-08-06T00:25:54;93634.38;;;25.52;65.06
5550;BME280;2798;42.716;23.256;2023-08-06T00:28:20;93638.63;;;25.41;65.82
5550;BME280;2798;42.716;23.256;2023-08-06T00:30:45;93620.78;;;25.43;65.72
5550;BME280;2798;42.716;23.256;2023-08-06T00:33:11;93616.66;;;25.36;66.93
5550;BME280;2798;42.716;23.256;2023-08-06T00:35:36;93609.22;;;25.33;67.38
5550;BME280;2798;42.716;23.256;2023-08-06T00:38:02;93613.09;;;25.30;65.94
5550;BME280;2798;42.716;23.256;2023-08-06T00:40:27;93595.13;;;25.27;66.37
5550;BME280;2798;42.716;23.256;2023-08-06T00:42:56;93597.19;;;25.25;66.57
5550;BME280;2798;42.716;23.256;2023-08-06T00:45:21;93602.69;;;25.23;67.30
5550;BME280;2798;42.716;23.256;2023-08-06T00:47:48;93607.50;;;25.26;67.21
5550;BME280;2798;42.716;23.256;2023-08-06T00:50:14;93575.66;;;25.28;66.22
5550;BME280;2798;42.716;23.256;2023-08-06T00:52:40;93605.66;;;25.39;66.77
5550;BME280;2798;42.716;23.256;2023-08-06T00:55:06;93602.00;;;25.28;66.83
5550;BME280;2798;42.716;23.256;2023-08-06T00:57:31;93596.41;;;25.24;67.28
5550;BME280;2798;42.716;23.256;2023-08-06T00:59:57;93595.94;;;25.27;67.27
5550;BME280;2798;42.716;23.256;2023-08-06T01:02:23;93585.53;;;25.21;67.72
5550;BME280;2798;42.716;23.256;2023-08-06T01:04:48;93574.78;;;25.10;67.86
5550;BME280;2798;42.716;23.256;2023-08-06T01:07:21;93580.72;;;25.17;68.54
5550;BME280;2798;42.716;23.256;2023-08-06T01:10:15;93569.28;;;25.24;68.81
5550;BME280;2798;42.716;23.256;2023-08-06T01:15:58;93565.59;;;25.37;67.41
5550;BME280;2798;42.716;23.256;2023-08-06T01:18:27;93562.84;;;25.31;67.63
5550;BME280;2798;42.716;23.256;2023-08-06T01:20:53;93564.34;;;25.27;67.63
5550;BME280;2798;42.716;23.256;2023-08-06T01:23:19;93562.06;;;25.19;68.10
5550;BME280;2798;42.716;23.256;2023-08-06T01:31:40;93565.06;;;25.23;68.85
5550;BME280;2798;42.716;23.256;2023-08-06T01:34:10;93554.06;;;25.26;68.39
5550;BME280;2798;42.716;23.256;2023-08-06T01:36:36;93519.41;;;25.05;67.76
5550;BME280;2798;42.716;23.256;2023-08-06T01:39:02;93541.31;;;25.35;67.65
5550;BME280;2798;42.716;23.256;2023-08-06T01:41:28;93537.63;;;25.48;65.57
5550;BME280;2798;42.716;23.256;2023-08-06T01:43:53;93539.66;;;25.46;67.00
5550;BME280;2798;42.716;23.256;2023-08-06T01:46:19;93539.97;;;25.32;67.95
5550;BME280;2798;42.716;23.256;2023-08-06T01:48:44;93549.34;;;25.28;68.69
5550;BME280;2798;42.716;23.256;2023-08-06T01:51:09;93558.28;;;25.27;67.82
5550;BME280;2798;42.716;23.256;2023-08-06T01:53:35;93545.81;;;25.22;68.19
5550;BME280;2798;42.716;23.256;2023-08-06T01:56:01;93544.47;;;25.08;69.00
5550;BME280;2798;42.716;23.256;2023-08-06T01:58:26;93553.72;;;25.10;69.84
5550;BME280;2798;42.716;23.256;2023-08-06T02:00:52;93521.69;;;25.01;69.98
5550;BME280;2798;42.716;23.256;2023-08-06T02:03:17;93524.53;;;25.12;68.85
5550;BME280;2798;42.716;23.256;2023-08-06T02:05:42;93528.09;;;25.05;69.57
5550;BME280;2798;42.716;23.256;2023-08-06T02:08:08;93532.00;;;25.03;70.49
5550;BME280;2798;42.716;23.256;2023-08-06T02:10:34;93526.97;;;25.01;70.58
5550;BME280;2798;42.716;23.256;2023-08-06T02:12:59;93525.47;;;25.05;69.24
5550;BME280;2798;42.716;23.256;2023-08-06T02:15:25;93528.00;;;25.00;70.25
5550;BME280;2798;42.716;23.256;2023-08-06T02:17:50;93524.00;;;24.98;70.92
5550;BME280;2798;42.716;23.256;2023-08-06T02:20:16;93544.03;;;24.99;70.51
5550;BME280;2798;42.716;23.256;2023-08-06T02:22:41;93544.16;;;24.92;70.79
5550;BME280;2798;42.716;23.256;2023-08-06T02:25:07;93555.22;;;24.94;70.92
5550;BME280;2798;42.716;23.256;2023-08-06T02:27:33;93574.81;;;24.98;70.53
5550;BME280;2798;42.716;23.256;2023-08-06T02:29:58;93552.13;;;25.09;69.95
5550;BME280;2798;42.716;23.256;2023-08-06T02:32:23;93541.13;;;25.24;69.62
5550;BME280;2798;42.716;23.256;2023-08-06T02:34:49;93513.84;;;25.30;69.41
5550;BME280;2798;42.716;23.256;2023-08-06T02:37:14;93511.50;;;25.46;68.36
5550;BME280;2798;42.716;23.256;2023-08-06T02:39:40;93538.31;;;25.43;69.60
5550;BME280;2798;42.716;23.256;2023-08-06T02:42:08;93581.25;;;25.43;70.03
5550;BME280;2798;42.716;23.256;2023-08-06T02:44:34;93599.81;;;25.49;69.42
5550;BME280;2798;42.716;23.256;2023-08-06T02:47:00;93590.88;;;25.50;70.03
5550;BME280;2798;42.716;23.256;2023-08-06T02:49:25;93564.75;;;25.48;70.29
5550;BME280;2798;42.716;23.256;2023-08-06T02:51:51;93552.94;;;25.51;69.60
5550;BME280;2798;42.716;23.256;2023-08-06T02:54:20;93550.88;;;25.53;70.18
5550;BME280;2798;42.716;23.256;2023-08-06T02:56:45;93550.19;;;25.58;69.80
5550;BME280;2798;42.716;23.256;2023-08-06T02:59:12;93511.69;;;25.68;68.17
5550;BME280;2798;42.716;23.256;2023-08-06T03:01:37;93497.31;;;25.76;67.90
5550;BME280;2798;42.716;23.256;2023-08-06T03:04:03;93520.25;;;25.76;68.69
5550;BME280;2798;42.716;23.256;2023-08-06T03:06:28;93523.50;;;25.66;69.89
5550;BME280;2798;42.716;23.256;2023-08-06T03:08:54;93498.03;;;25.72;68.98
5550;BME280;2798;42.716;23.256;2023-08-06T03:11:19;93467.41;;;25.83;66.46
5550;BME280;2798;42.716;23.256;2023-08-06T03:13:45;93465.78;;;25.82;66.18
5550;BME280;2798;42.716;23.256;2023-08-06T03:16:10;93493.75;;;25.83;67.56
5550;BME280;2798;42.716;23.256;2023-08-06T03:18:35;93515.84;;;25.64;70.17
5550;BME280;2798;42.716;23.256;2023-08-06T03:21:01;93495.78;;;25.63;69.64
5550;BME280;2798;42.716;23.256;2023-08-06T03:23:26;93462.19;;;25.71;68.32
5550;BME280;2798;42.716;23.256;2023-08-06T03:25:52;93487.03;;;25.75;67.47
5550;BME280;2798;42.716;23.256;2023-08-06T03:28:17;93524.19;;;25.61;69.89
5550;BME280;2798;42.716;23.256;2023-08-06T03:30:43;93505.78;;;25.49;71.03
5550;BME280;2798;42.716;23.256;2023-08-06T03:33:08;93502.19;;;25.55;70.71
5550;BME280;2798;42.716;23.256;2023-08-06T03:35:33;93502.25;;;25.43;70.63
5550;BME280;2798;42.716;23.256;2023-08-06T03:37:59;93540.47;;;25.46;71.33
5550;BME280;2798;42.716;23.256;2023-08-06T03:40:24;93539.44;;;25.47;71.60
5550;BME280;2798;42.716;23.256;2023-08-06T03:42:50;93534.88;;;25.42;71.96
5550;BME280;2798;42.716;23.256;2023-08-06T03:45:15;93535.09;;;25.41;72.03
5550;BME280;2798;42.716;23.256;2023-08-06T03:47:41;93548.16;;;25.48;72.21
5550;BME280;2798;42.716;23.256;2023-08-06T03:50:06;93542.88;;;25.48;71.19
5550;BME280;2798;42.716;23.256;2023-08-06T03:52:32;93547.91;;;25.49;71.97
5550;BME280;2798;42.716;23.256;2023-08-06T03:54:57;93555.59;;;25.51;72.02
5550;BME280;2798;42.716;23.256;2023-08-06T03:57:23;93554.09;;;25.55;71.39
5550;BME280;2798;42.716;23.256;2023-08-06T03:59:48;93552.25;;;25.55;71.60
5550;BME280;2798;42.716;23.256;2023-08-06T04:02:13;93558.91;;;25.58;71.39
5550;BME280;2798;42.716;23.256;2023-08-06T04:04:39;93562.31;;;25.59;72.08
5550;BME280;2798;42.716;23.256;2023-08-06T04:07:04;93551.34;;;25.62;71.30
5550;BME280;2798;42.716;23.256;2023-08-06T04:09:30;93557.97;;;25.64;70.73
5550;BME280;2798;42.716;23.256;2023-08-06T04:11:55;93559.91;;;25.69;71.11
5550;BME280;2798;42.716;23.256;2023-08-06T04:14:21;93561.44;;;25.65;70.86
5550;BME280;2798;42.716;23.256;2023-08-06T04:16:47;93577.88;;;25.72;71.50
5550;BME280;2798;42.716;23.256;2023-08-06T04:19:12;93580.75;;;25.71;71.39
5550;BME280;2798;42.716;23.256;2023-08-06T04:21:37;93573.09;;;25.69;71.43
5550;BME280;2798;42.716;23.256;2023-08-06T04:24:03;93568.88;;;25.68;72.01
5550;BME280;2798;42.716;23.256;2023-08-06T04:26:28;93568.63;;;25.70;71.76
5550;BME280;2798;42.716;23.256;2023-08-06T04:28:54;93554.75;;;25.74;71.78
5550;BME280;2798;42.716;23.256;2023-08-06T04:31:20;93548.53;;;25.80;70.84
5550;BME280;2798;42.716;23.256;2023-08-06T04:33:46;93546.13;;;25.79;69.99
5550;BME280;2798;42.716;23.256;2023-08-06T04:36:11;93547.72;;;25.80;71.80
5550;BME280;2798;42.716;23.256;2023-08-06T04:38:37;93547.72;;;25.80;71.72
5550;BME280;2798;42.716;23.256;2023-08-06T04:41:03;93549.31;;;25.81;71.23
5550;BME280;2798;42.716;23.256;2023-08-06T04:43:29;93544.72;;;25.88;71.40
5550;BME280;2798;42.716;23.256;2023-08-06T04:45:55;93461.91;;;25.55;69.05
5550;BME280;2798;42.716;23.256;2023-08-06T04:48:21;93507.75;;;26.00;68.11
5550;BME280;2798;42.716;23.256;2023-08-06T04:50:48;93509.75;;;26.10;68.05
5550;BME280;2798;42.716;23.256;2023-08-06T04:53:14;93510.31;;;26.12;67.36
5550;BME280;2798;42.716;23.256;2023-08-06T04:55:39;93484.56;;;26.02;67.91
5550;BME280;2798;42.716;23.256;2023-08-06T04:58:05;93495.41;;;26.18;67.30
5550;BME280;2798;42.716;23.256;2023-08-06T05:00:30;93491.38;;;26.15;67.95
5550;BME280;2798;42.716;23.256;2023-08-06T05:02:56;93489.06;;;26.19;67.94
5550;BME280;2798;42.716;23.256;2023-08-06T05:05:21;93492.56;;;26.25;66.03
5550;BME280;2798;42.716;23.256;2023-08-06T05:07:50;93499.31;;;26.33;66.50
5550;BME280;2798;42.716;23.256;2023-08-06T05:10:16;93473.16;;;26.14;66.36
5550;BME280;2798;42.716;23.256;2023-08-06T05:12:41;93506.31;;;26.27;67.16
5550;BME280;2798;42.716;23.256;2023-08-06T05:15:07;93500.00;;;26.28;66.54
5550;BME280;2798;42.716;23.256;2023-08-06T05:17:33;93502.75;;;26.33;66.66
5550;BME280;2798;42.716;23.256;2023-08-06T05:19:59;93516.50;;;26.35;67.23
5550;BME280;2798;42.716;23.256;2023-08-06T05:22:24;93499.72;;;26.41;66.28
5550;BME280;2798;42.716;23.256;2023-08-06T05:24:50;93508.97;;;26.44;66.42
5550;BME280;2798;42.716;23.256;2023-08-06T05:27:15;93505.63;;;26.49;68.26
5550;BME280;2798;42.716;23.256;2023-08-06T05:29:41;93506.25;;;26.56;66.72
5550;BME280;2798;42.716;23.256;2023-08-06T05:32:06;93499.41;;;26.55;66.75
5550;BME280;2798;42.716;23.256;2023-08-06T05:34:32;93503.34;;;26.75;64.80
5550;BME280;2798;42.716;23.256;2023-08-06T05:36:57;93505.75;;;26.76;64.63
5550;BME280;2798;42.716;23.256;2023-08-06T05:39:23;93494.09;;;26.72;67.58
5550;BME280;2798;42.716;23.256;2023-08-06T05:41:48;93502.00;;;26.72;67.97
5550;BME280;2798;42.716;23.256;2023-08-06T05:44:15;93505.66;;;26.88;64.63
5550;BME280;2798;42.716;23.256;2023-08-06T05:46:40;93495.25;;;26.82;64.53
5550;BME280;2798;42.716;23.256;2023-08-06T05:49:06;93497.69;;;26.66;64.22
5550;BME280;2798;42.716;23.256;2023-08-06T05:51:31;93492.91;;;26.46;66.23
5550;BME280;2798;42.716;23.256;2023-08-06T05:53:57;93503.38;;;26.58;63.86
5550;BME280;2798;42.716;23.256;2023-08-06T05:56:22;93512.59;;;26.55;62.97
5550;BME280;2798;42.716;23.256;2023-08-06T05:58:48;93518.41;;;26.40;64.39
5550;BME280;2798;42.716;23.256;2023-08-06T06:01:15;93520.25;;;26.39;61.79
5550;BME280;2798;42.716;23.256;2023-08-06T06:03:41;93516.19;;;26.32;62.84
5550;BME280;2798;42.716;23.256;2023-08-06T06:06:06;93535.59;;;26.42;63.85
5550;BME280;2798;42.716;23.256;2023-08-06T06:08:32;93525.13;;;26.48;64.75
5550;BME280;2798;42.716;23.256;2023-08-06T06:10:58;93530.50;;;26.53;62.63
5550;BME280;2798;42.716;23.256;2023-08-06T06:13:24;93545.84;;;26.56;61.41
5550;BME280;2798;42.716;23.256;2023-08-06T06:15:49;93543.28;;;26.61;60.57
5550;BME280;2798;42.716;23.256;2023-08-06T06:18:15;93531.91;;;26.61;59.84
5550;BME280;2798;42.716;23.256;2023-08-06T06:20:40;93545.97;;;26.66;60.28
5550;BME280;2798;42.716;23.256;2023-08-06T06:23:05;93556.47;;;26.61;61.83
5550;BME280;2798;42.716;23.256;2023-08-06T06:25:31;93556.16;;;26.40;61.22
5550;BME280;2798;42.716;23.256;2023-08-06T06:27:56;93573.84;;;26.28;62.05
5550;BME280;2798;42.716;23.256;2023-08-06T06:30:23;93581.91;;;26.21;62.02
5550;BME280;2798;42.716;23.256;2023-08-06T06:32:49;93581.25;;;26.14;62.29
5550;BME280;2798;42.716;23.256;2023-08-06T06:35:14;93564.13;;;25.99;62.79
5550;BME280;2798;42.716;23.256;2023-08-06T06:37:40;93583.19;;;25.89;62.87
5550;BME280;2798;42.716;23.256;2023-08-06T06:40:06;93570.19;;;25.83;63.48
5550;BME280;2798;42.716;23.256;2023-08-06T06:42:31;93588.94;;;25.86;63.39
5550;BME280;2798;42.716;23.256;2023-08-06T06:44:56;93596.19;;;25.79;63.04
5550;BME280;2798;42.716;23.256;2023-08-06T06:47:22;93596.91;;;25.74;63.39
5550;BME280;2798;42.716;23.256;2023-08-06T06:49:47;93591.63;;;25.74;64.77
5550;BME280;2798;42.716;23.256;2023-08-06T06:52:13;93608.00;;;25.76;63.63
5550;BME280;2798;42.716;23.256;2023-08-06T06:54:39;93585.09;;;25.77;63.69
5550;BME280;2798;42.716;23.256;2023-08-06T06:57:05;93598.69;;;25.86;63.05
5550;BME280;2798;42.716;23.256;2023-08-06T06:59:31;93603.03;;;25.92;63.10
5550;BME280;2798;42.716;23.256;2023-08-06T07:01:56;93617.19;;;26.03;61.45
5550;BME280;2798;42.716;23.256;2023-08-06T07:04:22;93617.75;;;26.05;60.55
5550;BME280;2798;42.716;23.256;2023-08-06T07:06:47;93603.16;;;25.85;60.25
5550;BME280;2798;42.716;23.256;2023-08-06T07:09:12;93603.75;;;25.75;61.17
5550;BME280;2798;42.716;23.256;2023-08-06T07:11:38;93620.09;;;25.89;61.78
5550;BME280;2798;42.716;23.256;2023-08-06T07:14:03;93611.94;;;25.91;61.82
5550;BME280;2798;42.716;23.256;2023-08-06T07:16:29;93620.09;;;25.89;62.65
5550;BME280;2798;42.716;23.256;2023-08-06T07:18:54;93615.06;;;25.88;62.20
5550;BME280;2798;42.716;23.256;2023-08-06T07:21:20;93615.41;;;25.91;61.77
5550;BME280;2798;42.716;23.256;2023-08-06T07:23:46;93611.72;;;25.92;60.92
5550;BME280;2798;42.716;23.256;2023-08-06T07:26:11;93616.44;;;25.90;62.40
5550;BME280;2798;42.716;23.256;2023-08-06T07:28:37;93633.47;;;26.00;61.47
5550;BME280;2798;42.716;23.256;2023-08-06T07:31:03;93635.81;;;26.13;59.74
5550;BME280;2798;42.716;23.256;2023-08-06T07:33:29;93624.25;;;26.14;60.10
5550;BME280;2798;42.716;23.256;2023-08-06T07:35:54;93627.63;;;26.27;59.49
5550;BME280;2798;42.716;23.256;2023-08-06T07:38:19;93636.66;;;26.31;60.13
5550;BME280;2798;42.716;23.256;2023-08-06T07:40:45;93596.03;;;26.15;58.57
5550;BME280;2798;42.716;23.256;2023-08-06T07:43:11;93611.53;;;26.40;57.96
5550;BME280;2798;42.716;23.256;2023-08-06T07:45:37;93612.25;;;26.53;57.31
5550;BME280;2798;42.716;23.256;2023-08-06T07:48:03;93620.34;;;26.63;56.95
5550;BME280;2798;42.716;23.256;2023-08-06T07:50:29;93631.47;;;26.65;56.90
5550;BME280;2798;42.716;23.256;2023-08-06T07:52:54;93624.97;;;26.73;56.45
5550;BME280;2798;42.716;23.256;2023-08-06T07:55:20;93618.09;;;26.89;55.73
5550;BME280;2798;42.716;23.256;2023-08-06T07:57:45;93613.28;;;26.86;56.02
5550;BME280;2798;42.716;23.256;2023-08-06T08:00:11;93616.19;;;26.85;55.98
5550;BME280;2798;42.716;23.256;2023-08-06T08:02:36;93622.03;;;26.87;55.72
5550;BME280;2798;42.716;23.256;2023-08-06T08:05:02;93609.88;;;26.86;54.79
5550;BME280;2798;42.716;23.256;2023-08-06T08:07:27;93609.56;;;26.82;55.13
5550;BME280;2798;42.716;23.256;2023-08-06T08:09:55;93595.94;;;26.73;55.71
5550;BME280;2798;42.716;23.256;2023-08-06T08:12:21;93617.63;;;26.75;55.40
5550;BME280;2798;42.716;23.256;2023-08-06T08:14:46;93614.38;;;26.68;56.30
5550;BME280;2798;42.716;23.256;2023-08-06T08:17:12;93620.75;;;26.72;55.29
5550;BME280;2798;42.716;23.256;2023-08-06T08:19:37;93607.13;;;26.63;55.67
5550;BME280;2798;42.716;23.256;2023-08-06T08:22:02;93601.72;;;26.70;55.07
5550;BME280;2798;42.716;23.256;2023-08-06T08:24:28;93618.44;;;26.76;54.26
5550;BME280;2798;42.716;23.256;2023-08-06T08:26:56;93603.31;;;26.71;53.58
5550;BME280;2798;42.716;23.256;2023-08-06T08:29:22;93595.88;;;26.68;53.73
5550;BME280;2798;42.716;23.256;2023-08-06T08:31:48;93607.94;;;26.47;54.73
5550;BME280;2798;42.716;23.256;2023-08-06T08:34:18;93611.59;;;26.46;55.86
5550;BME280;2798;42.716;23.256;2023-08-06T08:36:44;93607.13;;;26.46;54.26
5550;BME280;2798;42.716;23.256;2023-08-06T08:39:12;93620.94;;;26.36;54.18
5550;BME280;2798;42.716;23.256;2023-08-06T08:41:38;93602.50;;;26.36;54.39
5550;BME280;2798;42.716;23.256;2023-08-06T08:44:08;93615.28;;;26.45;54.18
5550;BME280;2798;42.716;23.256;2023-08-06T08:46:40;93607.72;;;26.48;54.31
5550;BME280;2798;42.716;23.256;2023-08-06T08:49:06;93585.16;;;26.40;54.14
5550;BME280;2798;42.716;23.256;2023-08-06T08:51:33;93600.66;;;26.37;54.73
5550;BME280;2798;42.716;23.256;2023-08-06T08:54:02;93606.03;;;26.42;55.20
5550;BME280;2798;42.716;23.256;2023-08-06T08:56:28;93593.63;;;26.42;54.58
5550;BME280;2798;42.716;23.256;2023-08-06T08:58:54;93593.38;;;26.44;55.25
5550;BME280;2798;42.716;23.256;2023-08-06T09:01:21;93596.03;;;26.44;54.19
5550;BME280;2798;42.716;23.256;2023-08-06T09:03:47;93588.91;;;26.45;55.01
5550;BME280;2798;42.716;23.256;2023-08-06T09:06:13;93568.44;;;26.35;55.52
5550;BME280;2798;42.716;23.256;2023-08-06T09:08:46;93585.72;;;26.42;55.24
5550;BME280;2798;42.716;23.256;2023-08-06T09:11:12;93598.13;;;26.42;54.75
5550;BME280;2798;42.716;23.256;2023-08-06T09:13:38;93581.97;;;26.38;55.11
5550;BME280;2798;42.716;23.256;2023-08-06T09:16:04;93580.19;;;26.44;54.28
5550;BME280;2798;42.716;23.256;2023-08-06T09:18:30;93585.16;;;26.58;54.14
5550;BME280;2798;42.716;23.256;2023-08-06T09:20:57;93570.69;;;26.60;53.67
5550;BME280;2798;42.716;23.256;2023-08-06T09:23:30;93587.16;;;26.50;52.80
5550;BME280;2798;42.716;23.256;2023-08-06T09:25:56;93572.13;;;26.51;52.21
5550;BME280;2798;42.716;23.256;2023-08-06T09:28:22;93574.38;;;26.42;53.34
5550;BME280;2798;42.716;23.256;2023-08-06T09:30:49;93561.56;;;26.51;53.00
5550;BME280;2798;42.716;23.256;2023-08-06T09:33:18;93569.34;;;26.58;52.03
5550;BME280;2798;42.716;23.256;2023-08-06T09:35:46;93569.88;;;26.77;52.33
5550;BME280;2798;42.716;23.256;2023-08-06T09:38:12;93586.19;;;26.91;49.83
5550;BME280;2798;42.716;23.256;2023-08-06T09:40:38;93560.84;;;26.90;49.09
5550;BME280;2798;42.716;23.256;2023-08-06T09:43:05;93548.91;;;27.05;48.70
5550;BME280;2798;42.716;23.256;2023-08-06T09:45:36;93553.94;;;27.06;48.17
5550;BME280;2798;42.716;23.256;2023-08-06T09:48:05;93552.97;;;27.12;48.41
5550;BME280;2798;42.716;23.256;2023-08-06T09:50:32;93553.78;;;27.13;48.55
5550;BME280;2798;42.716;23.256;2023-08-06T09:53:02;93558.44;;;27.28;48.53
5550;BME280;2798;42.716;23.256;2023-08-06T09:55:28;93559.25;;;27.51;46.24
5550;BME280;2798;42.716;23.256;2023-08-06T09:57:54;93559.41;;;27.67;45.51
5550;BME280;2798;42.716;23.256;2023-08-06T10:00:20;93573.13;;;27.86;45.36
5550;BME280;2798;42.716;23.256;2023-08-06T10:02:46;93560.59;;;28.04;45.40
5550;BME280;2798;42.716;23.256;2023-08-06T10:05:14;93568.19;;;28.22;45.81
5550;BME280;2798;42.716;23.256;2023-08-06T10:07:42;93570.25;;;28.43;44.76
5550;BME280;2798;42.716;23.256;2023-08-06T10:10:08;93575.19;;;28.67;44.16
5550;BME280;2798;42.716;23.256;2023-08-06T10:12:37;93579.50;;;28.78;43.61
5550;BME280;2798;42.716;23.256;2023-08-06T10:15:09;93585.06;;;28.77;43.80
5550;BME280;2798;42.716;23.256;2023-08-06T10:17:36;93591.56;;;28.58;43.93
5550;BME280;2798;42.716;23.256;2023-08-06T10:20:05;93591.56;;;28.63;44.27
5550;BME280;2798;42.716;23.256;2023-08-06T10:22:33;93599.75;;;28.62;45.16
5550;BME280;2798;42.716;23.256;2023-08-06T10:25:02;93586.47;;;28.57;44.36
5550;BME280;2798;42.716;23.256;2023-08-06T10:27:33;93582.31;;;28.61;44.47
5550;BME280;2798;42.716;23.256;2023-08-06T10:30:36;93585.25;;;28.65;44.45
5550;BME280;2798;42.716;23.256;2023-08-06T10:33:06;93565.56;;;28.50;44.97
5550;BME280;2798;42.716;23.256;2023-08-06T10:35:44;93597.72;;;28.69;44.67
5550;BME280;2798;42.716;23.256;2023-08-06T10:45:52;93610.53;;;28.50;44.30
5550;BME280;2798;42.716;23.256;2023-08-06T10:48:38;93611.56;;;28.49;44.63
5550;BME280;2798;42.716;23.256;2023-08-06T10:51:10;93608.41;;;28.47;44.77
5550;BME280;2798;42.716;23.256;2023-08-06T10:53:37;93566.44;;;28.06;43.94
5550;BME280;2798;42.716;23.256;2023-08-06T10:56:18;93601.00;;;27.94;45.46
5550;BME280;2798;42.716;23.256;2023-08-06T10:58:45;93612.84;;;27.69;45.75
5550;BME280;2798;42.716;23.256;2023-08-06T11:01:10;93608.34;;;27.47;47.16
5550;BME280;2798;42.716;23.256;2023-08-06T11:03:37;93654.13;;;27.52;48.27
5550;BME280;2798;42.716;23.256;2023-08-06T11:06:03;93642.28;;;27.55;50.96
5550;BME280;2798;42.716;23.256;2023-08-06T11:08:33;93616.03;;;27.48;51.33
5550;BME280;2798;42.716;23.256;2023-08-06T11:11:15;93631.81;;;27.65;51.77
5550;BME280;2798;42.716;23.256;2023-08-06T11:13:45;93632.22;;;27.74;51.67
5550;BME280;2798;42.716;23.256;2023-08-06T11:16:13;93632.91;;;27.87;51.85
5550;BME280;2798;42.716;23.256;2023-08-06T11:18:40;93637.50;;;27.97;52.02
5550;BME280;2798;42.716;23.256;2023-08-06T11:21:06;93639.69;;;28.05;51.78
5550;BME280;2798;42.716;23.256;2023-08-06T11:23:34;93630.78;;;28.11;52.13
5550;BME280;2798;42.716;23.256;2023-08-06T11:25:59;93630.13;;;28.26;52.32
5550;BME280;2798;42.716;23.256;2023-08-06T11:28:25;93635.31;;;28.38;52.57
5550;BME280;2798;42.716;23.256;2023-08-06T11:30:51;93625.28;;;28.41;52.81
5550;BME280;2798;42.716;23.256;2023-08-06T11:33:23;93628.06;;;28.56;52.33
5550;BME280;2798;42.716;23.256;2023-08-06T11:35:54;93600.41;;;28.42;53.05
5550;BME280;2798;42.716;23.256;2023-08-06T11:38:20;93635.41;;;28.82;52.98
5550;BME280;2798;42.716;23.256;2023-08-06T11:40:45;93631.59;;;29.00;53.21
5550;BME280;2798;42.716;23.256;2023-08-06T11:43:13;93605.13;;;29.05;52.58
5550;BME280;2798;42.716;23.256;2023-08-06T11:45:38;93614.06;;;29.42;52.48
5550;BME280;2798;42.716;23.256;2023-08-06T11:48:05;93605.16;;;29.59;51.77
5550;BME280;2798;42.716;23.256;2023-08-06T11:50:31;93608.13;;;29.73;51.25
5550;BME280;2798;42.716;23.256;2023-08-06T11:52:58;93607.69;;;29.92;51.01
5550;BME280;2798;42.716;23.256;2023-08-06T11:55:24;93602.38;;;30.02;47.52
5550;BME280;2798;42.716;23.256;2023-08-06T11:57:50;93596.81;;;30.04;44.69
5550;BME280;2798;42.716;23.256;2023-08-06T12:00:16;93589.97;;;30.13;43.40
5550;BME280;2798;42.716;23.256;2023-08-06T12:02:48;93594.94;;;29.99;42.70
5550;BME280;2798;42.716;23.256;2023-08-06T12:05:15;93581.91;;;29.77;42.82
5550;BME280;2798;42.716;23.256;2023-08-06T12:07:43;93602.06;;;29.83;42.80
5550;BME280;2798;42.716;23.256;2023-08-06T12:10:10;93595.13;;;29.71;41.11
5550;BME280;2798;42.716;23.256;2023-08-06T12:12:35;93594.75;;;29.52;42.09
5550;BME280;2798;42.716;23.256;2023-08-06T12:15:03;93585.16;;;29.41;42.03
5550;BME280;2798;42.716;23.256;2023-08-06T12:17:29;93591.47;;;29.24;42.39
5550;BME280;2798;42.716;23.256;2023-08-06T12:19:54;93589.22;;;29.05;42.50
5550;BME280;2798;42.716;23.256;2023-08-06T12:22:19;93585.19;;;28.92;42.83
5550;BME280;2798;42.716;23.256;2023-08-06T12:24:46;93588.56;;;28.87;43.07
5550;BME280;2798;42.716;23.256;2023-08-06T12:27:12;93590.69;;;28.91;43.25
5550;BME280;2798;42.716;23.256;2023-08-06T12:29:41;93591.63;;;29.02;40.97
5550;BME280;2798;42.716;23.256;2023-08-06T12:32:07;93589.41;;;28.93;41.29
5550;BME280;2798;42.716;23.256;2023-08-06T12:34:33;93568.09;;;28.72;41.52
5550;BME280;2798;42.716;23.256;2023-08-06T12:36:59;93589.88;;;28.85;41.75
5550;BME280;2798;42.716;23.256;2023-08-06T12:39:24;93594.31;;;28.74;41.66
5550;BME280;2798;42.716;23.256;2023-08-06T12:41:49;93577.00;;;28.61;41.68
5550;BME280;2798;42.716;23.256;2023-08-06T12:44:15;93586.00;;;28.60;42.46
5550;BME280;2798;42.716;23.256;2023-08-06T12:46:40;93587.75;;;28.49;42.63
5550;BME280;2798;42.716;23.256;2023-08-06T12:49:06;93586.31;;;28.36;42.85
5550;BME280;2798;42.716;23.256;2023-08-06T12:51:32;93578.56;;;28.29;42.73
5550;BME280;2798;42.716;23.256;2023-08-06T12:53:59;93581.97;;;28.24;42.84
5550;BME280;2798;42.716;23.256;2023-08-06T12:56:24;93569.22;;;28.16;42.60
5550;BME280;2798;42.716;23.256;2023-08-06T12:58:50;93579.09;;;28.26;43.45
5550;BME280;2798;42.716;23.256;2023-08-06T13:01:15;93586.03;;;28.32;43.60
5550;BME280;2798;42.716;23.256;2023-08-06T13:03:41;93586.63;;;28.40;42.98
5550;BME280;2798;42.716;23.256;2023-08-06T13:06:06;93583.66;;;28.36;42.96
5550;BME280;2798;42.716;23.256;2023-08-06T13:08:32;93584.47;;;28.36;42.87
5550;BME280;2798;42.716;23.256;2023-08-06T13:10:58;93589.00;;;28.41;43.22
5550;BME280;2798;42.716;23.256;2023-08-06T13:13:23;93598.84;;;28.46;42.48
5550;BME280;2798;42.716;23.256;2023-08-06T13:15:52;93596.00;;;28.53;42.00
5550;BME280;2798;42.716;23.256;2023-08-06T13:18:17;93590.66;;;28.47;42.39
5550;BME280;2798;42.716;23.256;2023-08-06T13:20:43;93591.97;;;28.45;42.37
5550;BME280;2798;42.716;23.256;2023-08-06T13:23:08;93593.53;;;28.41;42.65